Aviation Digital Data Service (ADDS)

Output produced by METARs form (0758 UTC 20 March 2019)
found at http://www.aviationweather.gov/metar/data/
 
Forecast for: ETHB (BUCKEBURG(GER-AR, DE)
Text: TAF ETHB 200519Z 2006/2015 23010KT 9999 NSW SCT200
Forecast period: 0600 to 0700 UTC 20 March 2019
Forecast type: FROM: standard forecast or significant change
Winds: from the SW (230 degrees) at 12 MPH (10 knots; 5.1 m/s)
Visibility: 6 or more miles 10+ km)
Ceiling: at least 12,000 feet AGL
Clouds: scattered clouds at 20000 feet AGL
Weather: NSW  (no significant weather)
Text: BECMG 2007/2009 23010KT 9999 NSW BKN100
Forecast period: 0700 to 0900 UTC 20 March 2019
Forecast type: BECOMING: Conditions expected to become as follows by 0900 UTC 20 March 2019
Winds: from the SW (230 degrees) at 12 MPH (10 knots; 5.1 m/s)
Visibility: 6 or more miles 10+ km)
Ceiling: 10000 feet AGL
Clouds: broken clouds at 10000 feet AGL
Weather: NSW  (no significant weather)
Text: BECMG 2009/2011 24012KT 9999 NSW BKN040
Forecast period: 0900 to 1500 UTC 20 March 2019
Forecast type: BECOMING: Conditions expected to become as follows by 1100 UTC 20 March 2019
Winds: from the WSW (240 degrees) at 14 MPH (12 knots; 6.2 m/s)
Visibility: 6 or more miles 10+ km)
Ceiling: 4000 feet AGL
Clouds: broken clouds at 4000 feet AGL
Weather: NSW  (no significant weather)